Time;durP1;ratioP1;P1;durP2;ratioP2;P2;SDS_P1;SDS_P2;PMS_P1;PMS_P2;Temp;Humidity;BMP_temperature;BMP_pressure;BME280_temperature;BME280_humidity;BME280_pressure;Samples;Min_cycle;Max_cycle;Signal;HPM_P1;HPM_P2
2022/09/05 00:01:29;;;;;;;;;;;;;;;;;;4953322;28;1460;-75
2022/09/05 00:03:57;;;;;;;;;;;;;;;;;;4953935;28;1020;-76
2022/09/05 00:06:23;;;;;;;;;;;;;;;;;;4953718;29;771;-75
2022/09/05 00:08:52;;;;;;;;;;;;;;;;;;4953958;29;1496;-75
2022/09/05 00:11:19;;;;;;;;;;;;;;;;;;4953197;28;1368;-74
2022/09/05 00:13:46;;;;;;;;;;;;;;;;;;4953616;29;989;-75
2022/09/05 00:16:24;;;;;;;;;;;;;;;;;;4936259;28;1983;-75
2022/09/05 00:18:58;;;;;;;;;;;;;;;;;;4953443;29;938;-75
2022/09/05 00:21:29;;;;;;;;;;;;;;;;;;4952977;28;1394;-75
2022/09/05 00:23:59;;;;;;;;;;;;;;;;;;4953560;29;744;-74
2022/09/05 00:26:29;;;;;;;;;;;;;;;;;;4952695;29;1076;-75
2022/09/05 00:28:57;;;;;;;;;;;;;;;;;;4952481;29;680;-75
2022/09/05 00:31:29;;;;;;;;;;;;;;;;;;4952854;28;1325;-75
2022/09/05 00:34:01;;;;;;;;;;;;;;;;;;4953405;29;840;-76
2022/09/05 00:36:30;;;;;;;;;;;;;;;;;;4953256;29;1986;-75
2022/09/05 00:38:57;;;;;;;;;;;;;;;;;;4953561;28;976;-75
2022/09/05 00:41:23;;;;;;;;;;;;;;;;;;4952653;28;1294;-74
2022/09/05 00:43:49;;;;;;;;;;;;;;;;;;4953360;29;1080;-75
2022/09/05 00:46:16;;;;;;;;;;;;;;;;;;4953121;29;1032;-75
2022/09/05 00:48:44;;;;;;;;;;;;;;;;;;4953161;29;1138;-75
2022/09/05 00:51:14;;;;;;;;;;;;;;;;;;4953054;28;1289;-76
2022/09/05 00:53:43;;;;;;;;;;;;;;;;;;4952941;29;1064;-75
2022/09/05 00:56:15;;;;;;;;;;;;;;;;;;4952994;29;1915;-76
2022/09/05 00:58:51;;;;;;;;;;;;;;;;;;4952990;28;1072;-75
2022/09/05 01:01:25;;;;;;;;;;;;;;;;;;4952574;28;1257;-74
2022/09/05 01:03:53;;;;;;;;;;;;;;;;;;4936292;28;1427;-76
2022/09/05 01:06:32;;;;;;;;;;;;;;;;;;4953099;28;791;-75
2022/09/05 01:09:01;;;;;;;;;;;;;;;;;;4953045;28;783;-75
2022/09/05 01:11:34;;;;;;;;;;;;;;;;;;4952156;28;1390;-76
2022/09/05 01:14:02;;;;;;;;;;;;;;;;;;4952914;29;1127;-75
2022/09/05 01:16:30;;;;;;;;;;;;;;;;;;4952414;29;2013;-74
2022/09/05 01:19:00;;;;;;;;;;;;;;;;;;4952875;28;1087;-75
2022/09/05 01:21:32;;;;;;;;;;;;;;;;;;4952558;28;1376;-75
2022/09/05 01:24:03;;;;;;;;;;;;;;;;;;4935585;28;937;-76
2022/09/05 01:26:37;;;;;;;;;;;;;;;;;;4935353;28;1101;-75
2022/09/05 01:29:05;;;;;;;;;;;;;;;;;;4935315;29;1050;-76
2022/09/05 01:31:34;;;;;;;;;;;;;;;;;;4952121;28;1391;-75
2022/09/05 01:34:03;;;;;;;;;;;;;;;;;;4952671;29;1266;-75
2022/09/05 01:36:37;;;;;;;;;;;;;;;;;;4935709;29;1968;-75
2022/09/05 01:39:04;;;;;;;;;;;;;;;;;;4955230;29;1560;-75
2022/09/05 01:41:32;;;;;;;;;;;;;;;;;;4954644;29;1567;-75
2022/09/05 01:44:07;;;;;;;;;;;;;;;;;;4952977;29;1128;-75
2022/09/05 01:46:36;;;;;;;;;;;;;;;;;;4952239;29;1068;-75
2022/09/05 01:49:06;;;;;;;;;;;;;;;;;;4952440;29;1127;-75
2022/09/05 01:51:34;;;;;;;;;;;;;;;;;;4951947;29;1415;-76
2022/09/05 01:54:06;;;;;;;;;;;;;;;;;;4952249;29;839;-74
2022/09/05 01:56:38;;;;;;;;;;;;;;;;;;4952289;28;1914;-75
2022/09/05 01:59:13;;;;;;;;;;;;;;;;;;4952165;29;1063;-74
2022/09/05 02:01:44;;;;;;;;;;;;;;;;;;4951418;29;1364;-75
2022/09/05 02:04:29;;;;;;;;;;;;;;;;;;4952152;29;1119;-75
2022/09/05 02:06:58;;;;;;;;;;;;;;;;;;4951939;29;791;-75
2022/09/05 02:09:32;;;;;;;;;;;;;;;;;;4951803;29;1025;-76
2022/09/05 02:11:59;;;;;;;;;;;;;;;;;;4951547;29;1330;-75
2022/09/05 02:14:29;;;;;;;;;;;;;;;;;;4951304;29;854;-75
2022/09/05 02:16:57;;;;;;;;;;;;;;;;;;4951679;29;1983;-75
2022/09/05 02:19:25;;;;;;;;;;;;;;;;;;4951824;29;1075;-76
2022/09/05 02:21:54;;;;;;;;;;;;;;;;;;4934300;29;1305;-75
2022/09/05 02:24:21;;;;;;;;;;;;;;;;;;4951509;29;798;-75
2022/09/05 02:26:51;;;;;;;;;;;;;;;;;;4951766;29;1052;-75
2022/09/05 02:29:19;;;;;;;;;;;;;;;;;;4951733;29;1072;-75
2022/09/05 02:31:47;;;;;;;;;;;;;;;;;;4951194;29;1330;-75
2022/09/05 02:34:15;;;;;;;;;;;;;;;;;;4951984;29;1060;-75
2022/09/05 02:36:42;;;;;;;;;;;;;;;;;;4951514;29;1915;-75
2022/09/05 02:39:19;;;;;;;;;;;;;;;;;;4951732;29;989;-75
2022/09/05 02:41:46;;;;;;;;;;;;;;;;;;4950927;29;1328;-75
2022/09/05 02:44:14;;;;;;;;;;;;;;;;;;4951761;29;1060;-75
2022/09/05 02:46:43;;;;;;;;;;;;;;;;;;4951253;29;1080;-75
2022/09/05 02:49:11;;;;;;;;;;;;;;;;;;4934313;29;945;-75
2022/09/05 02:51:38;;;;;;;;;;;;;;;;;;4933887;29;1342;-75
2022/09/05 02:54:05;;;;;;;;;;;;;;;;;;4951235;29;789;-75
2022/09/05 02:56:34;;;;;;;;;;;;;;;;;;4951303;29;1922;-75
2022/09/05 02:59:03;;;;;;;;;;;;;;;;;;4951465;29;1072;-75
2022/09/05 03:01:39;;;;;;;;;;;;;;;;;;4954629;28;2001;-75
2022/09/05 03:04:10;;;;;;;;;;;;;;;;;;4960883;28;1437;-75
2022/09/05 03:06:42;;;;;;;;;;;;;;;;;;4963936;28;1159;-75
2022/09/05 03:09:16;;;;;;;;;;;;;;;;;;4951296;28;948;-75
2022/09/05 03:11:45;;;;;;;;;;;;;;;;;;5016656;28;1394;-75
2022/09/05 03:14:33;;;;;;;;;;;;;;;;;;4951159;28;1429;-75
2022/09/05 03:17:15;;;;;;;;;;;;;;;;;;4950835;29;1972;-75
2022/09/05 03:19:59;;;;;;;;;;;;;;;;;;4962494;28;1226;-75
2022/09/05 03:22:43;;;;;;;;;;;;;;;;;;4950420;28;1250;-75
2022/09/05 03:25:36;;;;;;;;;;;;;;;;;;4949523;29;1400;-75
2022/09/05 03:28:11;;;;;;;;;;;;;;;;;;4950782;29;1080;-76
2022/09/05 03:30:41;;;;;;;;;;;;;;;;;;4950613;28;1389;-75
2022/09/05 03:33:16;;;;;;;;;;;;;;;;;;4950442;29;1127;-75
2022/09/05 03:35:57;;;;;;;;;;;;;;;;;;4950249;29;1911;-75
2022/09/05 03:38:38;;;;;;;;;;;;;;;;;;4950442;29;1147;-75
2022/09/05 03:41:08;;;;;;;;;;;;;;;;;;4951621;28;1296;-75
2022/09/05 03:43:58;;;;;;;;;;;;;;;;;;4950452;28;949;-75
2022/09/05 03:46:26;;;;;;;;;;;;;;;;;;4950474;29;1629;-75
2022/09/05 03:48:56;;;;;;;;;;;;;;;;;;4950656;28;1035;-75
2022/09/05 03:51:26;;;;;;;;;;;;;;;;;;4950204;28;1333;-75
2022/09/05 03:53:58;;;;;;;;;;;;;;;;;;4950466;29;1350;-75
2022/09/05 03:56:34;;;;;;;;;;;;;;;;;;4950212;29;1911;-74
2022/09/05 03:59:06;;;;;;;;;;;;;;;;;;5016813;28;1048;-75
2022/09/05 04:01:34;;;;;;;;;;;;;;;;;;4949700;28;1310;-74
2022/09/05 04:04:01;;;;;;;;;;;;;;;;;;4950728;28;862;-75
2022/09/05 04:06:31;;;;;;;;;;;;;;;;;;4950331;28;1087;-75
2022/09/05 04:09:01;;;;;;;;;;;;;;;;;;4950599;28;968;-75
2022/09/05 04:11:29;;;;;;;;;;;;;;;;;;4949990;28;1381;-75
2022/09/05 04:13:55;;;;;;;;;;;;;;;;;;4950604;28;1083;-75
2022/09/05 04:16:24;;;;;;;;;;;;;;;;;;4950055;29;1976;-74
2022/09/05 04:18:51;;;;;;;;;;;;;;;;;;4950346;28;1072;-74
2022/09/05 04:21:18;;;;;;;;;;;;;;;;;;4949820;28;1309;-72
2022/09/05 04:23:46;;;;;;;;;;;;;;;;;;4950250;28;1189;-74
2022/09/05 04:26:16;;;;;;;;;;;;;;;;;;4949895;28;969;-74
2022/09/05 04:28:50;;;;;;;;;;;;;;;;;;4950211;29;1127;-75
2022/09/05 04:31:19;;;;;;;;;;;;;;;;;;4949481;28;1407;-73
2022/09/05 04:33:47;;;;;;;;;;;;;;;;;;4950298;28;901;-74
2022/09/05 04:36:18;;;;;;;;;;;;;;;;;;4949806;28;1915;-73
2022/09/05 04:38:44;;;;;;;;;;;;;;;;;;4953097;28;787;-75
2022/09/05 04:41:10;;;;;;;;;;;;;;;;;;4953194;28;1306;-74
2022/09/05 04:43:39;;;;;;;;;;;;;;;;;;4952982;28;1146;-74
2022/09/05 04:46:13;;;;;;;;;;;;;;;;;;4953305;28;988;-74
2022/09/05 04:48:41;;;;;;;;;;;;;;;;;;4953146;28;1047;-74
2022/09/05 04:51:09;;;;;;;;;;;;;;;;;;4952976;28;1408;-74
2022/09/05 04:53:39;;;;;;;;;;;;;;;;;;4953048;28;1445;-74
2022/09/05 04:56:07;;;;;;;;;;;;;;;;;;4952980;28;1984;-74
2022/09/05 04:58:33;;;;;;;;;;;;;;;;;;4952914;29;961;-74
2022/09/05 05:01:01;;;;;;;;;;;;;;;;;;4953521;28;1391;-75
2022/09/05 05:03:27;;;;;;;;;;;;;;;;;;4952811;29;1131;-75
2022/09/05 05:05:55;;;;;;;;;;;;;;;;;;4952996;29;1136;-75
2022/09/05 05:08:24;;;;;;;;;;;;;;;;;;4953071;28;1056;-74
2022/09/05 05:10:51;;;;;;;;;;;;;;;;;;4953083;28;1423;-75
2022/09/05 05:13:18;;;;;;;;;;;;;;;;;;4952507;29;1116;-74
2022/09/05 05:15:45;;;;;;;;;;;;;;;;;;4952533;29;1884;-76
2022/09/05 05:18:14;;;;;;;;;;;;;;;;;;4952525;29;1064;-75
2022/09/05 05:20:41;;;;;;;;;;;;;;;;;;4952480;28;1410;-75
2022/09/05 05:23:08;;;;;;;;;;;;;;;;;;4952258;29;1032;-75
2022/09/05 05:25:41;;;;;;;;;;;;;;;;;;4952693;29;970;-75
2022/09/05 05:28:09;;;;;;;;;;;;;;;;;;4952233;29;1475;-75
2022/09/05 05:30:35;;;;;;;;;;;;;;;;;;4952508;28;1307;-75
2022/09/05 05:33:03;;;;;;;;;;;;;;;;;;4952107;29;899;-76
2022/09/05 05:35:29;;;;;;;;;;;;;;;;;;4952388;29;790;-75
2022/09/05 05:37:58;;;;;;;;;;;;;;;;;;4952392;28;1980;-74
2022/09/05 05:40:25;;;;;;;;;;;;;;;;;;4952359;28;1322;-75
2022/09/05 05:42:52;;;;;;;;;;;;;;;;;;4951854;29;1064;-75
2022/09/05 05:45:19;;;;;;;;;;;;;;;;;;4952059;29;799;-75
2022/09/05 05:47:45;;;;;;;;;;;;;;;;;;4935005;29;1001;-75
2022/09/05 05:50:17;;;;;;;;;;;;;;;;;;4951356;28;685;-76
2022/09/05 05:52:50;;;;;;;;;;;;;;;;;;4952163;29;646;-75
2022/09/05 05:55:23;;;;;;;;;;;;;;;;;;4951848;29;1144;-75
2022/09/05 05:58:05;;;;;;;;;;;;;;;;;;4952176;28;1976;-76
2022/09/05 06:00:35;;;;;;;;;;;;;;;;;;4952068;28;1319;-75
2022/09/05 06:03:25;;;;;;;;;;;;;;;;;;4951534;29;981;-75
2022/09/05 06:05:57;;;;;;;;;;;;;;;;;;4941880;29;1259;-75
2022/09/05 06:08:32;;;;;;;;;;;;;;;;;;4951968;28;1060;-75
2022/09/05 06:11:04;;;;;;;;;;;;;;;;;;5017908;28;1342;-74
2022/09/05 06:13:39;;;;;;;;;;;;;;;;;;4951580;28;1008;-76
2022/09/05 06:16:10;;;;;;;;;;;;;;;;;;4951824;28;1915;-75
2022/09/05 06:18:51;;;;;;;;;;;;;;;;;;4951777;29;870;-75
2022/09/05 06:21:24;;;;;;;;;;;;;;;;;;4951390;28;1322;-74
2022/09/05 06:23:53;;;;;;;;;;;;;;;;;;5018106;28;886;-75
2022/09/05 06:26:21;;;;;;;;;;;;;;;;;;4951289;29;1076;-74
2022/09/05 06:28:56;;;;;;;;;;;;;;;;;;5017949;28;1148;-74
2022/09/05 06:31:28;;;;;;;;;;;;;;;;;;4950749;28;1315;-73
2022/09/05 06:33:59;;;;;;;;;;;;;;;;;;4951426;29;1048;-74
2022/09/05 06:36:31;;;;;;;;;;;;;;;;;;4951455;28;2056;-75
2022/09/05 06:39:08;;;;;;;;;;;;;;;;;;4951345;29;1119;-74
2022/09/05 06:41:38;;;;;;;;;;;;;;;;;;4950987;28;1350;-75
2022/09/05 06:44:12;;;;;;;;;;;;;;;;;;5017507;28;977;-74
2022/09/05 06:46:38;;;;;;;;;;;;;;;;;;4951555;28;1072;-75
2022/09/05 06:49:07;;;;;;;;;;;;;;;;;;4951285;28;1076;-75
2022/09/05 06:51:40;;;;;;;;;;;;;;;;;;4950859;28;1355;-75
2022/09/05 06:54:16;;;;;;;;;;;;;;;;;;4951284;28;1134;-75
2022/09/05 06:56:45;;;;;;;;;;;;;;;;;;4951120;28;1978;-75
2022/09/05 06:59:35;;;;;;;;;;;;;;;;;;4933922;29;1426;-75
2022/09/05 07:02:07;;;;;;;;;;;;;;;;;;4950504;28;1380;-75
2022/09/05 07:04:34;;;;;;;;;;;;;;;;;;4951227;29;1441;-76
2022/09/05 07:07:05;;;;;;;;;;;;;;;;;;4951185;29;1119;-75
2022/09/05 07:09:31;;;;;;;;;;;;;;;;;;4950991;29;1123;-76
2022/09/05 07:12:01;;;;;;;;;;;;;;;;;;4950603;28;1438;-75
2022/09/05 07:14:27;;;;;;;;;;;;;;;;;;4950480;29;1060;-76
2022/09/05 07:16:57;;;;;;;;;;;;;;;;;;4950691;29;1966;-75
2022/09/05 07:19:24;;;;;;;;;;;;;;;;;;4950851;29;1095;-76
2022/09/05 07:22:04;;;;;;;;;;;;;;;;;;4950253;28;1297;-75
2022/09/05 07:24:30;;;;;;;;;;;;;;;;;;4950903;29;811;-75
2022/09/05 07:26:57;;;;;;;;;;;;;;;;;;4950793;28;1123;-76
2022/09/05 07:29:24;;;;;;;;;;;;;;;;;;4933538;29;1261;-76
2022/09/05 07:31:51;;;;;;;;;;;;;;;;;;4950417;28;1392;-75
2022/09/05 07:34:20;;;;;;;;;;;;;;;;;;4950200;29;1449;-76
2022/09/05 07:36:47;;;;;;;;;;;;;;;;;;4950836;28;1911;-75
2022/09/05 07:39:15;;;;;;;;;;;;;;;;;;4950410;29;1108;-76
2022/09/05 07:41:42;;;;;;;;;;;;;;;;;;4950207;28;1344;-76
2022/09/05 07:44:10;;;;;;;;;;;;;;;;;;4950489;29;882;-75
2022/09/05 07:46:37;;;;;;;;;;;;;;;;;;4950402;29;906;-75
2022/09/05 07:49:04;;;;;;;;;;;;;;;;;;4950634;29;953;-75
2022/09/05 07:51:32;;;;;;;;;;;;;;;;;;4949827;28;1328;-75
2022/09/05 07:54:00;;;;;;;;;;;;;;;;;;4933238;29;1113;-75
2022/09/05 07:56:40;;;;;;;;;;;;;;;;;;4950092;29;1199;-75
2022/09/05 07:59:07;;;;;;;;;;;;;;;;;;4950283;28;977;-75
2022/09/05 08:01:33;;;;;;;;;;;;;;;;;;4949650;28;1353;-75
2022/09/05 08:03:59;;;;;;;;;;;;;;;;;;4950384;28;1111;-75
2022/09/05 08:06:26;;;;;;;;;;;;;;;;;;4950339;28;1067;-76
2022/09/05 08:08:54;;;;;;;;;;;;;;;;;;4950274;28;1068;-75
2022/09/05 08:11:21;;;;;;;;;;;;;;;;;;4949775;28;1433;-74
2022/09/05 08:13:50;;;;;;;;;;;;;;;;;;4953399;28;1087;-76
2022/09/05 08:16:17;;;;;;;;;;;;;;;;;;4953313;28;980;-76
2022/09/05 08:18:44;;;;;;;;;;;;;;;;;;4953507;28;1911;-74
2022/09/05 08:21:12;;;;;;;;;;;;;;;;;;5018551;28;1524;-74
2022/09/05 08:23:47;;;;;;;;;;;;;;;;;;4970906;28;1092;-74
2022/09/05 08:26:15;;;;;;;;;;;;;;;;;;4972633;28;1021;-75
2022/09/05 08:28:44;;;;;;;;;;;;;;;;;;4972595;28;1040;-74
2022/09/05 08:31:13;;;;;;;;;;;;;;;;;;4972286;28;1321;-74
2022/09/05 08:33:39;;;;;;;;;;;;;;;;;;4955617;28;1459;-74
2022/09/05 08:36:07;;;;;;;;;;;;;;;;;;4974072;28;1028;-74
2022/09/05 08:38:35;;;;;;;;;;;;;;;;;;4974081;28;1919;-74
2022/09/05 08:41:03;;;;;;;;;;;;;;;;;;4973128;28;1333;-74
2022/09/05 08:43:32;;;;;;;;;;;;;;;;;;4972098;28;1127;-75
2022/09/05 08:45:58;;;;;;;;;;;;;;;;;;4972403;28;1084;-74
2022/09/05 08:48:27;;;;;;;;;;;;;;;;;;4972427;28;749;-74
2022/09/05 08:51:04;;;;;;;;;;;;;;;;;;4972363;28;1420;-73
2022/09/05 08:53:34;;;;;;;;;;;;;;;;;;4971909;28;1087;-75
2022/09/05 08:56:01;;;;;;;;;;;;;;;;;;4960072;28;1159;-74
2022/09/05 08:58:29;;;;;;;;;;;;;;;;;;5019251;28;1914;-74
2022/09/05 09:00:58;;;;;;;;;;;;;;;;;;4952785;28;1385;-75
2022/09/05 09:03:25;;;;;;;;;;;;;;;;;;4952523;28;1138;-74
2022/09/05 09:06:10;;;;;;;;;;;;;;;;;;5019439;28;1573;-75
2022/09/05 09:08:38;;;;;;;;;;;;;;;;;;4952796;29;775;-75
2022/09/05 09:11:04;;;;;;;;;;;;;;;;;;4952546;28;1342;-75
2022/09/05 09:13:34;;;;;;;;;;;;;;;;;;4952493;28;1132;-76
2022/09/05 09:16:05;;;;;;;;;;;;;;;;;;4952702;28;971;-76
2022/09/05 09:18:33;;;;;;;;;;;;;;;;;;4952586;28;1987;-76
2022/09/05 09:21:00;;;;;;;;;;;;;;;;;;4952603;28;1316;-76
2022/09/05 09:23:32;;;;;;;;;;;;;;;;;;4951345;28;895;-75
2022/09/05 09:26:02;;;;;;;;;;;;;;;;;;4952124;28;1611;-75
2022/09/05 09:28:37;;;;;;;;;;;;;;;;;;4952386;28;775;-75
2022/09/05 09:31:06;;;;;;;;;;;;;;;;;;4935144;29;1435;-76
2022/09/05 09:33:35;;;;;;;;;;;;;;;;;;4952095;29;803;-75
2022/09/05 09:36:02;;;;;;;;;;;;;;;;;;4952645;28;1107;-75
2022/09/05 09:38:30;;;;;;;;;;;;;;;;;;4952341;28;1915;-74
2022/09/05 09:41:15;;;;;;;;;;;;;;;;;;4952262;28;1341;-75
2022/09/05 09:43:56;;;;;;;;;;;;;;;;;;4952124;29;1080;-75
2022/09/05 09:46:26;;;;;;;;;;;;;;;;;;4952024;29;1107;-73
2022/09/05 09:49:01;;;;;;;;;;;;;;;;;;4952282;29;827;-75
2022/09/05 09:51:40;;;;;;;;;;;;;;;;;;4934341;29;1334;-75
2022/09/05 09:54:09;;;;;;;;;;;;;;;;;;4935005;28;941;-75
2022/09/05 09:56:45;;;;;;;;;;;;;;;;;;5005305;28;1236;-74
2022/09/05 09:59:17;;;;;;;;;;;;;;;;;;5018276;28;1982;-75
2022/09/05 10:01:53;;;;;;;;;;;;;;;;;;4951526;28;1329;-75
2022/09/05 10:04:21;;;;;;;;;;;;;;;;;;4951735;28;1064;-74
2022/09/05 10:06:54;;;;;;;;;;;;;;;;;;4952077;29;839;-74
2022/09/05 10:09:24;;;;;;;;;;;;;;;;;;4951844;28;1268;-74
2022/09/05 10:12:05;;;;;;;;;;;;;;;;;;4951339;28;1392;-73
2022/09/05 10:14:52;;;;;;;;;;;;;;;;;;4949911;29;1098;-75
2022/09/05 10:17:24;;;;;;;;;;;;;;;;;;4951506;29;2019;-75
2022/09/05 10:19:54;;;;;;;;;;;;;;;;;;4952110;28;1052;-74
2022/09/05 10:22:24;;;;;;;;;;;;;;;;;;4951538;28;1413;-75
2022/09/05 10:25:05;;;;;;;;;;;;;;;;;;4951828;28;1079;-75
2022/09/05 10:27:36;;;;;;;;;;;;;;;;;;4950096;28;1103;-74
2022/09/05 10:30:05;;;;;;;;;;;;;;;;;;4951811;28;1012;-75
2022/09/05 10:32:38;;;;;;;;;;;;;;;;;;4951104;28;1331;-76
2022/09/05 10:35:05;;;;;;;;;;;;;;;;;;4951218;28;874;-75
2022/09/05 10:37:35;;;;;;;;;;;;;;;;;;4951549;28;1907;-75
2022/09/05 10:40:02;;;;;;;;;;;;;;;;;;4951609;28;901;-76
2022/09/05 10:42:30;;;;;;;;;;;;;;;;;;4950939;28;1381;-76
2022/09/05 10:44:56;;;;;;;;;;;;;;;;;;5017496;28;1379;-75
2022/09/05 10:47:30;;;;;;;;;;;;;;;;;;4949423;28;1381;-75
2022/09/05 10:50:00;;;;;;;;;;;;;;;;;;4948223;29;1467;-75
2022/09/05 10:52:29;;;;;;;;;;;;;;;;;;4945664;28;1437;-75
2022/09/05 10:55:17;;;;;;;;;;;;;;;;;;4947917;28;1239;-75
2022/09/05 10:57:50;;;;;;;;;;;;;;;;;;4930766;29;1982;-75
2022/09/05 11:00:28;;;;;;;;;;;;;;;;;;4951323;28;1571;-74
2022/09/05 11:02:55;;;;;;;;;;;;;;;;;;4974509;28;1422;-74
2022/09/05 11:05:23;;;;;;;;;;;;;;;;;;4979570;28;1153;-74
2022/09/05 11:07:52;;;;;;;;;;;;;;;;;;4951115;29;1121;-76
2022/09/05 11:10:19;;;;;;;;;;;;;;;;;;4953139;28;1397;-74
2022/09/05 11:12:50;;;;;;;;;;;;;;;;;;4955935;28;1317;-75
2022/09/05 11:15:21;;;;;;;;;;;;;;;;;;4941112;28;1392;-75
2022/09/05 11:17:50;;;;;;;;;;;;;;;;;;4950817;28;1918;-76
2022/09/05 11:20:35;;;;;;;;;;;;;;;;;;4949009;29;1400;-74
2022/09/05 11:23:03;;;;;;;;;;;;;;;;;;4940102;28;1203;-74
2022/09/05 11:25:30;;;;;;;;;;;;;;;;;;4950630;29;1159;-75
2022/09/05 11:27:57;;;;;;;;;;;;;;;;;;4949658;28;1552;-76
2022/09/05 11:30:23;;;;;;;;;;;;;;;;;;4950267;28;1405;-75
2022/09/05 11:32:58;;;;;;;;;;;;;;;;;;4943049;28;1400;-75
2022/09/05 11:35:24;;;;;;;;;;;;;;;;;;4950534;28;1056;-74
2022/09/05 11:38:06;;;;;;;;;;;;;;;;;;4949768;29;1915;-75
2022/09/05 11:40:41;;;;;;;;;;;;;;;;;;4963996;28;1405;-76
2022/09/05 11:43:16;;;;;;;;;;;;;;;;;;4962546;28;1286;-74
2022/09/05 11:45:52;;;;;;;;;;;;;;;;;;4945500;29;1239;-75
2022/09/05 11:48:22;;;;;;;;;;;;;;;;;;4949629;28;1107;-75
2022/09/05 11:50:51;;;;;;;;;;;;;;;;;;4949997;28;1404;-75
2022/09/05 11:53:29;;;;;;;;;;;;;;;;;;5032490;22;3502;-76
2022/09/05 11:56:02;;;;;;;;;;;;;;;;;;5052900;28;1371;-77
2022/09/05 11:58:39;;;;;;;;;;;;;;;;;;5071848;28;1918;-77
2022/09/05 12:01:05;;;;;;;;;;;;;;;;;;5078507;28;1346;-77
2022/09/05 12:03:41;;;;;;;;;;;;;;;;;;5037710;28;1482;-75
2022/09/05 12:06:13;;;;;;;;;;;;;;;;;;5055410;28;1404;-77
2022/09/05 12:08:41;;;;;;;;;;;;;;;;;;5050597;28;1646;-76
2022/09/05 12:11:10;;;;;;;;;;;;;;;;;;5060039;28;1320;-78
2022/09/05 12:13:37;;;;;;;;;;;;;;;;;;5070615;28;1301;-77
2022/09/05 12:16:06;;;;;;;;;;;;;;;;;;5070977;28;842;-78
2022/09/05 12:18:33;;;;;;;;;;;;;;;;;;5070750;28;1977;-77
2022/09/05 12:21:02;;;;;;;;;;;;;;;;;;5060555;28;1291;-76
2022/09/05 12:23:33;;;;;;;;;;;;;;;;;;5023027;28;1482;-77
2022/09/05 12:26:02;;;;;;;;;;;;;;;;;;5021740;28;1364;-77
2022/09/05 12:28:30;;;;;;;;;;;;;;;;;;5046248;28;1363;-76
2022/09/05 12:31:09;;;;;;;;;;;;;;;;;;5050121;28;1356;-77
2022/09/05 12:33:36;;;;;;;;;;;;;;;;;;5040309;28;1390;-77
2022/09/05 12:36:03;;;;;;;;;;;;;;;;;;5070776;28;861;-76
2022/09/05 12:38:32;;;;;;;;;;;;;;;;;;5061251;28;1918;-77
2022/09/05 12:40:59;;;;;;;;;;;;;;;;;;5059682;28;1443;-77
2022/09/05 12:43:27;;;;;;;;;;;;;;;;;;5058395;28;1474;-76
2022/09/05 12:45:54;;;;;;;;;;;;;;;;;;5037901;28;1420;-76
2022/09/05 12:48:22;;;;;;;;;;;;;;;;;;5051269;28;1415;-76
2022/09/05 12:50:50;;;;;;;;;;;;;;;;;;5056955;28;1444;-77
2022/09/05 12:53:18;;;;;;;;;;;;;;;;;;5052225;28;1375;-77
2022/09/05 12:55:46;;;;;;;;;;;;;;;;;;5070577;28;1060;-77
2022/09/05 12:58:17;;;;;;;;;;;;;;;;;;5039871;28;1966;-76
2022/09/05 13:00:45;;;;;;;;;;;;;;;;;;5063406;28;1456;-76
2022/09/05 13:03:14;;;;;;;;;;;;;;;;;;5072443;28;1294;-76
2022/09/05 13:05:45;;;;;;;;;;;;;;;;;;5064649;28;1468;-76
2022/09/05 13:08:20;;;;;;;;;;;;;;;;;;5055953;28;1213;-76
2022/09/05 13:10:46;;;;;;;;;;;;;;;;;;5069099;28;1511;-77
2022/09/05 13:13:13;;;;;;;;;;;;;;;;;;5051459;28;1413;-76
2022/09/05 13:15:40;;;;;;;;;;;;;;;;;;5046396;28;1240;-76
2022/09/05 13:18:08;;;;;;;;;;;;;;;;;;5036517;28;1338;-76
2022/09/05 13:20:38;;;;;;;;;;;;;;;;;;5043545;28;2038;-76
2022/09/05 13:23:06;;;;;;;;;;;;;;;;;;5045652;28;1444;-76
2022/09/05 13:25:34;;;;;;;;;;;;;;;;;;5038815;28;1450;-76
2022/09/05 13:28:02;;;;;;;;;;;;;;;;;;5073344;28;1161;-77
2022/09/05 13:30:28;;;;;;;;;;;;;;;;;;5073820;28;1080;-76
2022/09/05 13:32:55;;;;;;;;;;;;;;;;;;5046409;28;1460;-76
2022/09/05 13:35:23;;;;;;;;;;;;;;;;;;5073702;28;1220;-77
2022/09/05 13:37:54;;;;;;;;;;;;;;;;;;5071247;28;1168;-77
2022/09/05 13:40:22;;;;;;;;;;;;;;;;;;5049857;28;1975;-75
2022/09/05 13:42:55;;;;;;;;;;;;;;;;;;5059309;28;1459;-76
2022/09/05 13:45:22;;;;;;;;;;;;;;;;;;5029309;28;1407;-76
2022/09/05 13:47:51;;;;;;;;;;;;;;;;;;5050952;28;1410;-76
2022/09/05 13:50:21;;;;;;;;;;;;;;;;;;5052670;28;1460;-77
2022/09/05 13:52:50;;;;;;;;;;;;;;;;;;5060911;28;1325;-77
2022/09/05 13:55:18;;;;;;;;;;;;;;;;;;5055404;28;1292;-77
2022/09/05 13:57:45;;;;;;;;;;;;;;;;;;5072830;28;1276;-77
2022/09/05 14:00:41;;;;;;;;;;;;;;;;;;5070838;28;1910;-77
2022/09/05 14:03:21;;;;;;;;;;;;;;;;;;5063980;28;1438;-77
2022/09/05 14:05:47;;;;;;;;;;;;;;;;;;5061607;28;1384;-77
2022/09/05 14:08:25;;;;;;;;;;;;;;;;;;5072823;28;1180;-77
2022/09/05 14:11:06;;;;;;;;;;;;;;;;;;5072257;28;1118;-78
2022/09/05 14:13:32;;;;;;;;;;;;;;;;;;5065646;28;1462;-77
2022/09/05 14:15:59;;;;;;;;;;;;;;;;;;5051370;28;1366;-77
2022/09/05 14:18:26;;;;;;;;;;;;;;;;;;5047186;28;2216;-78
2022/09/05 14:23:42;;;;;;;;;;;;;;;;;;5048226;28;1437;-78
2022/09/05 14:26:11;;;;;;;;;;;;;;;;;;5064220;28;1433;-77
2022/09/05 14:28:38;;;;;;;;;;;;;;;;;;5072485;28;1130;-78
2022/09/05 14:31:05;;;;;;;;;;;;;;;;;;5038884;28;1603;-77
2022/09/05 14:33:35;;;;;;;;;;;;;;;;;;5047415;28;1375;-78
2022/09/05 14:36:03;;;;;;;;;;;;;;;;;;5072367;28;906;-77
2022/09/05 14:38:39;;;;;;;;;;;;;;;;;;5054498;28;965;-76
2022/09/05 14:41:25;;;;;;;;;;;;;;;;;;5067167;28;1416;-77
2022/09/05 14:43:55;;;;;;;;;;;;;;;;;;5056441;28;1552;-77
2022/09/05 14:46:26;;;;;;;;;;;;;;;;;;5037739;28;1633;-76
2022/09/05 14:49:09;;;;;;;;;;;;;;;;;;5046510;28;1181;-75
2022/09/05 14:51:44;;;;;;;;;;;;;;;;;;5022804;28;1339;-75
2022/09/05 14:54:11;;;;;;;;;;;;;;;;;;5051180;28;1421;-76
2022/09/05 14:56:39;;;;;;;;;;;;;;;;;;5048555;28;1449;-75
2022/09/05 14:59:23;;;;;;;;;;;;;;;;;;5071429;28;1918;-76
2022/09/05 15:01:50;;;;;;;;;;;;;;;;;;5070530;28;1391;-76
2022/09/05 15:04:18;;;;;;;;;;;;;;;;;;5071566;28;1122;-77
2022/09/05 15:06:49;;;;;;;;;;;;;;;;;;5071570;28;1075;-77
2022/09/05 15:09:15;;;;;;;;;;;;;;;;;;5071700;28;956;-77
2022/09/05 15:11:43;;;;;;;;;;;;;;;;;;5071487;28;790;-75
2022/09/05 15:14:09;;;;;;;;;;;;;;;;;;5071771;28;1059;-77
2022/09/05 15:16:39;;;;;;;;;;;;;;;;;;5053610;28;1124;-75
2022/09/05 15:19:05;;;;;;;;;;;;;;;;;;5071568;28;1910;-77
2022/09/05 15:21:33;;;;;;;;;;;;;;;;;;5053951;28;1028;-75
2022/09/05 15:24:00;;;;;;;;;;;;;;;;;;5052534;28;1555;-76
2022/09/05 15:26:29;;;;;;;;;;;;;;;;;;5040592;28;1466;-76
2022/09/05 15:29:07;;;;;;;;;;;;;;;;;;5057999;28;1400;-76
2022/09/05 15:31:33;;;;;;;;;;;;;;;;;;5063186;28;1309;-75
2022/09/05 15:34:00;;;;;;;;;;;;;;;;;;5052760;28;1392;-77
2022/09/05 15:36:30;;;;;;;;;;;;;;;;;;5068358;28;1437;-77
2022/09/05 15:38:56;;;;;;;;;;;;;;;;;;5071357;28;1201;-77
2022/09/05 15:41:23;;;;;;;;;;;;;;;;;;5070725;28;1977;-77
2022/09/05 15:43:51;;;;;;;;;;;;;;;;;;5041890;28;1463;-78
2022/09/05 15:46:23;;;;;;;;;;;;;;;;;;5052535;28;1366;-77
2022/09/05 15:48:51;;;;;;;;;;;;;;;;;;5029194;28;1360;-76
2022/09/05 15:51:18;;;;;;;;;;;;;;;;;;5049374;28;1219;-77
2022/09/05 15:53:44;;;;;;;;;;;;;;;;;;5025539;28;1465;-76
2022/09/05 15:56:18;;;;;;;;;;;;;;;;;;5029004;28;1422;-75
2022/09/05 15:58:47;;;;;;;;;;;;;;;;;;5049755;28;1352;-75
2022/09/05 16:01:14;;;;;;;;;;;;;;;;;;5052172;28;1975;-74
2022/09/05 16:03:42;;;;;;;;;;;;;;;;;;5047131;28;1459;-75
2022/09/05 16:06:09;;;;;;;;;;;;;;;;;;5059986;28;1357;-75
2022/09/05 16:08:35;;;;;;;;;;;;;;;;;;5058099;28;1681;-76
2022/09/05 16:11:20;;;;;;;;;;;;;;;;;;5071081;28;1110;-76
2022/09/05 16:13:46;;;;;;;;;;;;;;;;;;5068511;28;1413;-75
2022/09/05 16:16:13;;;;;;;;;;;;;;;;;;5061849;28;1515;-77
2022/09/05 16:18:40;;;;;;;;;;;;;;;;;;5071422;28;1189;-77
2022/09/05 16:21:08;;;;;;;;;;;;;;;;;;5072510;28;1914;-77
2022/09/05 16:23:37;;;;;;;;;;;;;;;;;;5070626;28;1393;-78
2022/09/05 16:26:06;;;;;;;;;;;;;;;;;;5074131;28;1201;-76
2022/09/05 16:28:34;;;;;;;;;;;;;;;;;;5071175;28;1424;-76
2022/09/05 16:31:01;;;;;;;;;;;;;;;;;;5052962;28;1176;-76
2022/09/05 16:33:27;;;;;;;;;;;;;;;;;;5057928;28;1419;-77
2022/09/05 16:36:04;;;;;;;;;;;;;;;;;;5074192;28;1261;-75
2022/09/05 16:38:33;;;;;;;;;;;;;;;;;;5063295;28;1508;-78
2022/09/05 16:41:00;;;;;;;;;;;;;;;;;;5060553;28;1910;-75
2022/09/05 16:43:27;;;;;;;;;;;;;;;;;;5072469;28;1337;-76
2022/09/05 16:45:55;;;;;;;;;;;;;;;;;;5072681;28;893;-76
2022/09/05 16:48:24;;;;;;;;;;;;;;;;;;5050196;28;1433;-75
2022/09/05 16:50:51;;;;;;;;;;;;;;;;;;5057114;28;1347;-75
2022/09/05 16:53:20;;;;;;;;;;;;;;;;;;5071222;28;1506;-75
2022/09/05 16:55:50;;;;;;;;;;;;;;;;;;5059375;28;1404;-76
2022/09/05 16:58:17;;;;;;;;;;;;;;;;;;5071839;28;1336;-75
2022/09/05 17:00:47;;;;;;;;;;;;;;;;;;5063119;28;1905;-77
2022/09/05 17:03:18;;;;;;;;;;;;;;;;;;5050816;28;1631;-76
2022/09/05 17:05:45;;;;;;;;;;;;;;;;;;5050790;28;1479;-75
2022/09/05 17:08:12;;;;;;;;;;;;;;;;;;5069735;28;1044;-76
2022/09/05 17:10:42;;;;;;;;;;;;;;;;;;5033288;28;1482;-76
2022/09/05 17:13:09;;;;;;;;;;;;;;;;;;5035363;28;1451;-76
2022/09/05 17:15:36;;;;;;;;;;;;;;;;;;5052458;28;1377;-75
2022/09/05 17:18:03;;;;;;;;;;;;;;;;;;5072139;28;1164;-76
2022/09/05 17:20:30;;;;;;;;;;;;;;;;;;5050878;28;1980;-77
2022/09/05 17:22:57;;;;;;;;;;;;;;;;;;5060732;28;1417;-74
2022/09/05 17:25:24;;;;;;;;;;;;;;;;;;5062119;28;1427;-76
2022/09/05 17:27:51;;;;;;;;;;;;;;;;;;5055811;28;1103;-76
2022/09/05 17:30:47;;;;;;;;;;;;;;;;;;5049333;28;2630;-76